Time;durP1;ratioP1;P1;durP2;ratioP2;P2;SDS_P1;SDS_P2;PMS_P1;PMS_P2;Temp;Humidity;BMP_temperature;BMP_pressure;BME280_temperature;BME280_humidity;BME280_pressure;Samples;Min_cycle;Max_cycle;Signal;HPM_P1;HPM_P2
2023/09/06 00:38:50;;;;;;;3.73;2.10;;;22.90;86.40;;;;;;6030571;23;20392;-85
2023/09/06 01:06:54;;;;;;;;;;;;;;;;;;;;;
2023/09/06 01:15:13;;;;;;;2.50;2.30;;;22.50;90.10;;;;;;6273533;22;20486;-85
2023/09/06 01:18:27;;;;;;;3.13;2.47;;;22.40;90.40;;;;;;6178193;23;20521;-84
2023/09/06 01:33:11;;;;;;;;;;;;;;;;;;;;;
2023/09/06 01:37:07;;;;;;;2.60;2.40;;;22.40;91.00;;;;;;6241464;23;20380;-81
2023/09/06 01:40:40;;;;;;;2.60;2.40;;;22.30;91.30;;;;;;6069570;23;20551;-82
2023/09/06 01:44:01;;;;;;;5.50;2.77;;;22.30;91.60;;;;;;6101508;23;20406;-83
2023/09/06 02:04:15;;;;;;;2.80;2.47;;;22.00;92.50;;;;;;6032199;23;20414;-82
2023/09/06 02:07:42;;;;;;;2.33;2.13;;;22.00;92.30;;;;;;6027855;23;20425;-83
2023/09/06 02:11:37;;;;;;;;;;;;;;;;;;;;;
2023/09/06 02:14:25;;;;;;;3.03;2.30;;;21.90;92.20;;;;;;6004113;23;20422;-82
2023/09/06 02:18:46;;;;;;;2.77;2.57;;;22.10;91.90;;;;;;5958496;23;20541;-85
2023/09/06 02:21:54;;;;;;;2.80;2.60;;;21.90;92.00;;;;;;5950200;23;20467;-84
2023/09/06 02:25:40;;;;;;;2.93;2.70;;;21.70;92.60;;;;;;5976616;24;20410;-83
2023/09/06 02:33:02;;;;;;;2.40;2.20;;;21.90;92.90;;;;;;6023333;23;20453;-85
2023/09/06 02:36:08;;;;;;;2.40;2.20;;;21.90;92.60;;;;;;6039814;23;20397;-84
2023/09/06 02:39:19;;;;;;;1.90;1.80;;;21.80;92.80;;;;;;6055090;23;20453;-83
2023/09/06 02:42:09;;;;;;;2.13;1.93;;;21.70;93.10;;;;;;6158269;22;20479;-83
2023/09/06 02:45:49;;;;;;;2.60;2.40;;;21.80;92.70;;;;;;6229841;23;20412;-84
2023/09/06 02:49:59;;;;;;;2.60;2.40;;;21.80;92.80;;;;;;6230366;23;20434;-83
2023/09/06 02:53:21;;;;;;;2.20;2.07;;;21.70;93.10;;;;;;6225552;23;20548;-84
2023/09/06 02:56:45;;;;;;;3.00;2.80;;;21.60;93.70;;;;;;6074242;23;20405;-85
2023/09/06 03:04:46;;;;;;;3.87;2.47;;;21.40;94.20;;;;;;6013702;23;20399;-83
2023/09/06 03:35:00;;;;;;;4.10;2.50;;;21.40;93.90;;;;;;5887330;24;20491;-80
2023/09/06 03:42:27;;;;;;;;;;;;;;;;;;;;;
2023/09/06 03:53:57;;;;;;;2.30;2.20;;;21.00;94.00;;;;;;6254550;22;20440;-86
2023/09/06 04:01:10;;;;;;;3.60;2.40;;;21.00;94.10;;;;;;5857719;23;20501;-84
2023/09/06 04:04:04;;;;;;;2.97;2.67;;;20.90;94.40;;;;;;6048252;23;20439;-84
2023/09/06 04:11:27;;;;;;;;;;;;;;;;;;;;;
2023/09/06 04:15:01;;;;;;;5.10;2.70;;;20.70;95.20;;;;;;5915668;24;20457;-86
2023/09/06 04:33:20;;;;;;;3.10;2.90;;;20.60;96.50;;;;;;5881569;24;20470;-84
2023/09/06 04:36:44;;;;;;;2.77;2.57;;;20.90;96.10;;;;;;5876043;24;20410;-84
2023/09/06 04:44:04;;;;;;;3.67;3.10;;;20.70;96.30;;;;;;5943681;23;20567;-83
2023/09/06 05:39:40;;;;;;;5.03;3.40;;;20.30;98.10;;;;;;6115690;23;20421;-82
2023/09/06 05:46:15;;;;;;;;;;;;;;;;;;;;;
2023/09/06 08:05:29;;;;;;;;;;;;;;;;;;;;;
2023/09/06 08:12:53;;;;;;;3.20;2.90;;;34.90;43.70;;;;;;5841872;24;20509;-83
2023/09/06 09:17:27;;;;;;;2.87;2.67;;;35.60;40.80;;;;;;6082423;23;20410;-85
2023/09/06 09:24:01;;;;;;;5.67;3.23;;;36.70;38.70;;;;;;5942688;23;20411;-81
2023/09/06 09:31:15;;;;;;;;;;;;;;;;;;;;;
2023/09/06 10:47:42;;;;;;;2.70;2.50;;;35.60;35.90;;;;;;6231426;22;20553;-85
2023/09/06 11:10:16;;;;;;;;;;;;;;;;;;;;;
2023/09/06 11:14:10;;;;;;;;;;;;;;;;;;;;;
2023/09/06 11:25:32;;;;;;;;;;;;;;;;;;;;;
2023/09/06 11:44:06;;;;;;;;;;;;;;;;;;;;;
2023/09/06 12:13:22;;;;;;;;;;;;;;;;;;;;;
2023/09/06 12:24:48;;;;;;;;;;;;;;;;;;;;;
2023/09/06 12:31:42;;;;;;;3.10;2.83;;;34.80;39.50;;;;;;6001380;23;20529;-83
2023/09/06 12:35:07;;;;;;;3.87;3.17;;;35.00;38.60;;;;;;5926214;23;20613;-84
2023/09/06 12:38:09;;;;;;;3.63;3.03;;;34.80;39.10;;;;;;6072105;23;20864;-82
2023/09/06 12:41:34;;;;;;;3.70;3.40;;;34.80;38.80;;;;;;6122672;23;20407;-85
2023/09/06 13:04:00;;;;;;;3.20;3.00;;;35.60;36.90;;;;;;6249775;22;20463;-83
2023/09/06 13:19:01;;;;;;;;;;;;;;;;;;;;;
2023/09/06 13:21:37;;;;;;;3.03;2.83;;;34.60;36.80;;;;;;6277939;22;20545;-83
2023/09/06 13:24:07;;;;;;;4.10;3.50;;;34.40;36.60;;;;;;6251941;22;20438;-82
2023/09/06 13:26:58;;;;;;;3.07;2.87;;;34.00;37.20;;;;;;6241221;22;20399;-82
2023/09/06 13:29:39;;;;;;;3.27;2.97;;;34.10;37.30;;;;;;6251959;22;21112;-82
2023/09/06 13:32:24;;;;;;;3.17;2.90;;;34.50;36.10;;;;;;6252070;22;20427;-85
2023/09/06 13:35:01;;;;;;;3.40;3.20;;;34.60;36.40;;;;;;6276646;22;20411;-84
2023/09/06 13:37:42;;;;;;;3.00;2.80;;;34.60;36.60;;;;;;6250472;22;20420;-83
2023/09/06 13:40:18;;;;;;;3.63;3.40;;;34.70;36.70;;;;;;6251042;22;20391;-84
2023/09/06 13:42:53;;;;;;;2.73;2.53;;;35.20;36.30;;;;;;6277548;22;20488;-82
2023/09/06 13:45:25;;;;;;;3.60;3.30;;;34.90;36.80;;;;;;6249100;22;20403;-82
2023/09/06 13:47:56;;;;;;;3.60;3.30;;;34.90;36.40;;;;;;6250432;22;20464;-84
2023/09/06 13:50:32;;;;;;;3.20;3.00;;;34.80;37.10;;;;;;6277077;22;21038;-82
2023/09/06 13:53:06;;;;;;;3.37;3.17;;;34.80;37.10;;;;;;6250660;22;21099;-83
2023/09/06 13:55:41;;;;;;;3.53;3.23;;;34.60;38.60;;;;;;6250007;22;20448;-83
2023/09/06 13:58:13;;;;;;;2.97;2.77;;;34.50;39.20;;;;;;6250864;22;20415;-82
2023/09/06 14:00:42;;;;;;;3.27;3.07;;;34.60;39.90;;;;;;6279195;22;20463;-80
2023/09/06 14:03:14;;;;;;;4.50;3.10;;;34.70;40.00;;;;;;6285449;22;20514;-83
2023/09/06 14:05:49;;;;;;;3.43;3.03;;;34.60;39.40;;;;;;6267969;22;20473;-83
2023/09/06 14:08:33;;;;;;;4.03;3.70;;;34.20;39.90;;;;;;6292805;22;20399;-82
2023/09/06 14:11:02;;;;;;;3.57;3.27;;;34.40;39.30;;;;;;6266410;22;20446;-82
2023/09/06 14:13:36;;;;;;;3.50;3.20;;;34.40;38.80;;;;;;6266667;22;20368;-83
2023/09/06 14:16:12;;;;;;;3.90;3.60;;;34.20;38.10;;;;;;6265900;22;20407;-83
2023/09/06 14:18:49;;;;;;;3.90;3.60;;;34.00;38.20;;;;;;6266740;22;20410;-81
2023/09/06 14:21:30;;;;;;;3.67;3.37;;;34.10;38.40;;;;;;6243800;22;20534;-83
2023/09/06 14:24:03;;;;;;;4.27;3.87;;;34.30;37.90;;;;;;6231126;23;20523;-80
2023/09/06 14:26:34;;;;;;;3.43;3.23;;;34.20;37.80;;;;;;6226200;23;20400;-83
2023/09/06 14:29:07;;;;;;;3.30;3.00;;;34.40;38.00;;;;;;6225462;23;20436;-83
2023/09/06 14:31:35;;;;;;;3.40;3.20;;;34.00;37.80;;;;;;6221864;23;20500;-83
2023/09/06 14:34:08;;;;;;;3.50;3.20;;;34.10;38.30;;;;;;6214252;23;21172;-82
2023/09/06 14:36:36;;;;;;;3.57;3.27;;;34.00;37.40;;;;;;6216470;23;20640;-83
2023/09/06 14:39:07;;;;;;;3.10;2.80;;;33.80;37.70;;;;;;6218054;23;20936;-84
2023/09/06 14:41:49;;;;;;;3.10;2.90;;;33.60;37.70;;;;;;6215709;23;20439;-83
2023/09/06 14:44:20;;;;;;;4.20;3.80;;;33.80;37.40;;;;;;6214421;23;20516;-82
2023/09/06 14:46:50;;;;;;;2.90;2.70;;;33.80;37.10;;;;;;6216056;23;20405;-83
2023/09/06 14:49:48;;;;;;;3.30;3.00;;;33.60;37.20;;;;;;6214989;23;20821;-84
2023/09/06 14:52:28;;;;;;;3.47;3.13;;;33.40;37.40;;;;;;6209397;23;20432;-84
2023/09/06 14:55:07;;;;;;;2.67;2.47;;;33.30;37.70;;;;;;6216226;23;20417;-83
2023/09/06 14:57:38;;;;;;;3.33;3.03;;;33.00;38.00;;;;;;6216694;23;20471;-84
2023/09/06 15:00:09;;;;;;;3.10;2.90;;;32.90;38.70;;;;;;6214086;23;20898;-82
2023/09/06 15:02:37;;;;;;;3.27;2.97;;;32.80;38.80;;;;;;6215472;23;20405;-83
2023/09/06 15:05:04;;;;;;;3.80;3.40;;;32.80;39.30;;;;;;6217753;23;20462;-83
2023/09/06 15:07:34;;;;;;;3.67;3.37;;;32.90;39.30;;;;;;6223203;23;20420;-83
2023/09/06 15:10:05;;;;;;;4.27;2.97;;;32.80;39.70;;;;;;6230457;23;20435;-82
2023/09/06 15:12:42;;;;;;;3.40;3.10;;;32.70;40.50;;;;;;6230521;23;20380;-83
2023/09/06 15:15:17;;;;;;;4.13;3.70;;;32.90;40.80;;;;;;6215192;23;20478;-82
2023/09/06 15:17:46;;;;;;;3.00;2.80;;;33.00;40.80;;;;;;6210473;23;20461;-82
2023/09/06 15:20:16;;;;;;;5.23;2.90;;;33.00;40.60;;;;;;6210046;23;20404;-82
2023/09/06 15:22:48;;;;;;;3.70;3.40;;;32.90;40.90;;;;;;6216294;23;20943;-83
2023/09/06 15:25:15;;;;;;;3.30;3.10;;;33.10;41.30;;;;;;6216538;23;21333;-83
2023/09/06 15:27:55;;;;;;;3.20;2.90;;;33.00;42.20;;;;;;6243155;23;20916;-82
2023/09/06 15:30:29;;;;;;;4.17;3.87;;;32.80;42.50;;;;;;6217053;22;20393;-83
2023/09/06 15:33:00;;;;;;;3.43;3.13;;;32.70;42.60;;;;;;6244183;23;20392;-83
2023/09/06 15:35:28;;;;;;;2.87;2.67;;;32.50;43.00;;;;;;6241311;23;20400;-80
2023/09/06 15:38:11;;;;;;;3.40;3.13;;;32.50;43.60;;;;;;6215060;23;20421;-83
2023/09/06 15:40:42;;;;;;;3.37;3.17;;;32.50;43.90;;;;;;6242593;22;20848;-83
2023/09/06 15:43:14;;;;;;;3.40;3.10;;;32.70;44.00;;;;;;6215257;23;20478;-83
2023/09/06 15:45:42;;;;;;;3.33;3.03;;;32.70;44.10;;;;;;6214518;23;20415;-81
2023/09/06 15:48:12;;;;;;;3.20;2.97;;;32.60;44.50;;;;;;6216104;23;20412;-83
2023/09/06 15:50:44;;;;;;;3.00;2.80;;;32.40;44.90;;;;;;6216215;23;20435;-83
2023/09/06 15:53:17;;;;;;;4.13;3.83;;;32.30;45.60;;;;;;6241859;23;20419;-82
2023/09/06 15:55:46;;;;;;;6.23;5.63;;;32.30;45.80;;;;;;6215034;23;20760;-81
2023/09/06 15:58:15;;;;;;;4.60;4.20;;;32.20;46.60;;;;;;6242776;23;20771;-85
2023/09/06 16:00:43;;;;;;;3.13;2.83;;;32.20;46.80;;;;;;6223659;22;20428;-82
2023/09/06 16:03:13;;;;;;;3.50;3.20;;;32.10;47.10;;;;;;6254736;22;20797;-82
2023/09/06 16:05:41;;;;;;;3.60;3.30;;;32.20;47.00;;;;;;6248383;23;20466;-82
2023/09/06 16:08:11;;;;;;;3.37;3.17;;;32.10;46.60;;;;;;6223058;23;20479;-83
2023/09/06 16:10:38;;;;;;;4.20;3.50;;;32.00;47.10;;;;;;6219806;23;20432;-83
2023/09/06 16:13:20;;;;;;;3.20;2.90;;;31.90;47.70;;;;;;6220869;23;20444;-83
2023/09/06 16:15:53;;;;;;;3.47;3.13;;;32.00;47.10;;;;;;6227141;23;20429;-84
2023/09/06 16:18:23;;;;;;;3.70;3.20;;;31.90;47.60;;;;;;6225170;23;20839;-84
2023/09/06 16:20:58;;;;;;;4.03;3.67;;;31.90;47.60;;;;;;6252066;22;20440;-82
2023/09/06 16:23:30;;;;;;;4.43;4.03;;;31.90;47.80;;;;;;6224210;23;20470;-82
2023/09/06 16:25:59;;;;;;;4.00;3.70;;;31.80;48.20;;;;;;6222410;23;20396;-84
2023/09/06 16:28:30;;;;;;;3.80;3.50;;;31.70;48.80;;;;;;6226178;23;20404;-81
2023/09/06 16:31:00;;;;;;;3.67;3.37;;;31.50;48.50;;;;;;6225413;23;20479;-83
2023/09/06 16:33:32;;;;;;;3.60;3.30;;;31.50;48.50;;;;;;6221322;23;20479;-82
2023/09/06 16:36:07;;;;;;;3.63;3.33;;;31.50;48.40;;;;;;6247374;23;20415;-81
2023/09/06 16:38:40;;;;;;;4.10;3.77;;;31.50;48.40;;;;;;6244815;23;21103;-80
2023/09/06 16:41:32;;;;;;;3.60;3.23;;;31.50;48.60;;;;;;6219842;23;20432;-83
2023/09/06 16:44:05;;;;;;;4.80;3.57;;;31.40;48.70;;;;;;6248840;23;20450;-84
2023/09/06 16:46:39;;;;;;;3.50;3.20;;;31.50;48.60;;;;;;6250686;23;20404;-84
2023/09/06 16:49:15;;;;;;;3.43;3.23;;;31.40;49.10;;;;;;6218606;23;20424;-82
2023/09/06 16:51:47;;;;;;;3.63;3.33;;;31.30;49.20;;;;;;6219350;23;20450;-83
2023/09/06 16:54:25;;;;;;;3.97;3.67;;;31.30;49.40;;;;;;6219926;23;20481;-83
2023/09/06 16:56:56;;;;;;;4.00;3.70;;;31.20;49.60;;;;;;6219052;23;20408;-82
2023/09/06 16:59:37;;;;;;;3.93;3.63;;;31.10;49.30;;;;;;6226673;23;20515;-82
2023/09/06 17:02:15;;;;;;;4.07;3.77;;;31.10;50.00;;;;;;6230929;23;20925;-81
2023/09/06 17:04:58;;;;;;;3.90;3.60;;;31.10;49.80;;;;;;6233098;23;20438;-82
2023/09/06 17:07:42;;;;;;;4.20;3.50;;;31.20;50.00;;;;;;6223365;23;20404;-81
2023/09/06 17:10:29;;;;;;;4.30;4.00;;;31.10;50.00;;;;;;6225760;22;20412;-83
2023/09/06 17:13:08;;;;;;;4.30;4.00;;;31.10;50.60;;;;;;6223743;23;20407;-83
2023/09/06 17:15:39;;;;;;;3.57;3.27;;;31.10;50.10;;;;;;6223037;23;20427;-82
2023/09/06 17:18:32;;;;;;;3.93;3.60;;;30.90;50.40;;;;;;6223292;23;20901;-81
2023/09/06 17:21:00;;;;;;;3.50;3.20;;;31.10;50.40;;;;;;6209422;23;20446;-81
2023/09/06 17:23:45;;;;;;;4.20;3.73;;;31.00;50.50;;;;;;6223614;23;21233;-83
2023/09/06 17:26:31;;;;;;;4.70;4.30;;;31.00;50.50;;;;;;6223849;23;20939;-82
2023/09/06 17:29:37;;;;;;;4.10;3.60;;;30.90;51.00;;;;;;6256266;23;20422;-80
2023/09/06 17:32:40;;;;;;;6.57;3.87;;;30.90;50.90;;;;;;6252473;22;21246;-82
2023/09/06 17:35:23;;;;;;;3.67;3.37;;;30.70;51.30;;;;;;6225877;23;20464;-84
2023/09/06 17:38:21;;;;;;;4.00;3.70;;;30.80;50.60;;;;;;6250763;23;20427;-84
2023/09/06 17:40:53;;;;;;;5.03;4.63;;;30.80;50.80;;;;;;6232497;22;20450;-83
2023/09/06 17:43:27;;;;;;;4.37;3.97;;;30.50;50.80;;;;;;6234646;22;20428;-81
2023/09/06 17:45:59;;;;;;;4.50;4.10;;;30.40;50.10;;;;;;6238093;22;20447;-84
2023/09/06 17:48:33;;;;;;;4.63;3.80;;;30.40;50.10;;;;;;6239637;22;20378;-83
2023/09/06 17:51:07;;;;;;;4.00;3.70;;;30.20;50.30;;;;;;6264594;22;20479;-82
2023/09/06 17:53:36;;;;;;;5.60;4.00;;;30.20;50.20;;;;;;6265406;23;20423;-83
2023/09/06 17:56:16;;;;;;;4.30;3.73;;;30.20;50.50;;;;;;6265378;23;20413;-81
2023/09/06 17:58:53;;;;;;;3.87;3.50;;;30.10;50.70;;;;;;6261145;23;20469;-81
2023/09/06 18:01:30;;;;;;;3.80;3.50;;;29.90;51.10;;;;;;6256702;22;20428;-81
2023/09/06 18:04:00;;;;;;;3.87;3.43;;;29.80;51.60;;;;;;6236163;23;20423;-82
2023/09/06 18:06:41;;;;;;;3.93;3.63;;;29.70;52.10;;;;;;6240065;22;20384;-84
2023/09/06 18:09:18;;;;;;;5.90;3.40;;;29.70;52.50;;;;;;6236392;23;20439;-82
2023/09/06 18:11:48;;;;;;;4.10;3.80;;;29.80;52.90;;;;;;6257692;22;20424;-84
2023/09/06 18:14:28;;;;;;;4.03;3.60;;;29.80;52.70;;;;;;6258350;23;20408;-83
2023/09/06 18:17:17;;;;;;;4.17;3.77;;;29.80;52.60;;;;;;6234754;23;20430;-85
2023/09/06 18:20:29;;;;;;;5.50;4.10;;;29.80;52.90;;;;;;6257849;23;20448;-86
2023/09/06 18:22:56;;;;;;;4.90;4.27;;;29.50;53.30;;;;;;6169620;23;20500;-82
2023/09/06 18:25:44;;;;;;;4.90;4.50;;;29.50;53.60;;;;;;6231288;23;20420;-83
2023/09/06 18:28:30;;;;;;;4.83;4.53;;;29.40;53.90;;;;;;6230710;23;20424;-82
2023/09/06 18:31:02;;;;;;;4.70;4.30;;;29.40;54.50;;;;;;6226702;23;20419;-83
2023/09/06 18:33:31;;;;;;;4.70;4.30;;;29.40;54.70;;;;;;6255166;23;20511;-81
2023/09/06 18:39:00;;;;;;;4.90;4.50;;;29.10;55.60;;;;;;6232677;23;20465;-83
2023/09/06 18:41:34;;;;;;;5.57;4.40;;;29.00;56.10;;;;;;6225320;23;20544;-83
2023/09/06 18:44:06;;;;;;;4.80;4.37;;;29.00;56.30;;;;;;6225477;23;20440;-81
2023/09/06 18:46:46;;;;;;;5.60;5.10;;;28.90;56.50;;;;;;6224459;23;20415;-82
2023/09/06 18:49:36;;;;;;;5.20;4.70;;;28.90;56.60;;;;;;6225916;23;20423;-81
2023/09/06 18:52:43;;;;;;;5.30;4.90;;;28.80;57.20;;;;;;6225989;23;20412;-81
2023/09/06 18:55:53;;;;;;;5.17;4.77;;;28.70;57.10;;;;;;6195241;23;20437;-83
2023/09/06 19:02:29;;;;;;;5.83;5.30;;;28.70;57.80;;;;;;6202381;23;20860;-83
2023/09/06 19:05:58;;;;;;;5.37;4.90;;;28.60;57.90;;;;;;6183215;23;20429;-83
2023/09/06 19:08:42;;;;;;;5.83;5.33;;;28.50;57.90;;;;;;6163808;23;20402;-84
2023/09/06 19:11:40;;;;;;;6.33;5.10;;;28.50;58.00;;;;;;6215477;22;20451;-81
2023/09/06 19:14:46;;;;;;;5.50;5.00;;;28.40;58.20;;;;;;6188536;23;20534;-82
2023/09/06 19:17:27;;;;;;;5.73;5.23;;;28.40;58.30;;;;;;6212776;23;20408;-84
2023/09/06 19:29:30;;;;;;;8.50;7.80;;;28.30;60.50;;;;;;6204628;22;20411;-82
2023/09/06 19:32:16;;;;;;;6.77;6.07;;;28.30;61.90;;;;;;6287797;22;20431;-84
2023/09/06 19:34:51;;;;;;;7.00;6.30;;;28.20;61.70;;;;;;6258399;22;20399;-83
2023/09/06 19:37:27;;;;;;;5.67;5.13;;;28.20;61.90;;;;;;6257650;22;20411;-85
2023/09/06 19:40:29;;;;;;;7.33;6.43;;;28.10;61.50;;;;;;6256836;22;20437;-82
2023/09/06 19:43:44;;;;;;;6.10;5.30;;;28.10;61.70;;;;;;6251807;22;20478;-83
2023/09/06 19:46:16;;;;;;;5.87;5.27;;;28.00;62.30;;;;;;6277088;22;20419;-83
2023/09/06 19:48:58;;;;;;;5.07;4.67;;;28.00;63.00;;;;;;6249912;22;20411;-82
2023/09/06 19:51:34;;;;;;;5.43;4.93;;;27.90;63.20;;;;;;6250711;22;20956;-84
2023/09/06 19:54:32;;;;;;;5.53;5.03;;;27.80;63.30;;;;;;6251714;22;20471;-83
2023/09/06 19:57:05;;;;;;;5.77;5.00;;;27.80;63.20;;;;;;6250036;22;20403;-83
2023/09/06 20:02:39;;;;;;;5.70;5.20;;;27.60;63.70;;;;;;6272484;22;20419;-82
2023/09/06 20:05:37;;;;;;;5.63;5.13;;;27.60;63.80;;;;;;6249292;22;21023;-81
2023/09/06 20:08:25;;;;;;;5.13;4.70;;;27.50;63.30;;;;;;6250304;22;20461;-84
2023/09/06 20:11:27;;;;;;;5.17;4.67;;;27.50;63.60;;;;;;6249973;22;20875;-82
2023/09/06 20:14:12;;;;;;;5.17;4.67;;;27.50;63.60;;;;;;6277916;22;20413;-82
2023/09/06 20:17:01;;;;;;;4.97;4.13;;;27.40;63.20;;;;;;6245294;22;20395;-84
2023/09/06 20:20:08;;;;;;;4.67;4.27;;;27.40;63.30;;;;;;6249063;22;20772;-84
2023/09/06 20:23:32;;;;;;;5.17;4.77;;;27.30;62.80;;;;;;6274175;22;20426;-83
2023/09/06 20:26:33;;;;;;;5.30;4.80;;;27.10;63.50;;;;;;6209608;22;20822;-81
2023/09/06 20:29:38;;;;;;;5.13;4.60;;;26.90;64.00;;;;;;6256934;22;20411;-83
2023/09/06 20:32:50;;;;;;;5.03;4.63;;;26.90;64.40;;;;;;6275055;22;20404;-82
2023/09/06 20:36:05;;;;;;;5.17;4.77;;;26.80;65.10;;;;;;6105160;22;20393;-83
2023/09/06 20:39:06;;;;;;;5.90;5.40;;;26.80;65.40;;;;;;6219502;22;20387;-83
2023/09/06 20:41:55;;;;;;;5.50;4.10;;;26.80;65.40;;;;;;6241021;22;20464;-81
2023/09/06 20:44:37;;;;;;;7.60;5.53;;;26.80;65.80;;;;;;6262148;22;20446;-84
2023/09/06 20:47:07;;;;;;;5.17;4.77;;;26.80;66.10;;;;;;6281196;22;20406;-84
2023/09/06 20:49:43;;;;;;;4.60;4.20;;;26.70;66.00;;;;;;6252724;22;20411;-82
2023/09/06 20:52:14;;;;;;;8.20;5.50;;;26.70;66.50;;;;;;6252052;22;20446;-84
2023/09/06 20:54:57;;;;;;;5.83;5.33;;;26.70;67.00;;;;;;6280479;22;20423;-82
2023/09/06 20:58:08;;;;;;;6.13;5.50;;;26.60;67.60;;;;;;6266933;22;20407;-84
2023/09/06 21:03:36;;;;;;;6.60;6.10;;;26.60;69.30;;;;;;6216221;22;20680;-82
2023/09/06 21:13:36;;;;;;;8.00;7.30;;;26.40;71.30;;;;;;6247023;22;20399;-82
2023/09/06 21:16:38;;;;;;;8.50;7.00;;;26.30;71.50;;;;;;6179568;23;20404;-83
2023/09/06 21:19:49;;;;;;;4.87;4.47;;;26.30;71.50;;;;;;6245350;23;20408;-84
2023/09/06 21:22:40;;;;;;;4.93;4.50;;;26.30;71.00;;;;;;6215772;23;20428;-81
2023/09/06 21:25:37;;;;;;;6.07;5.47;;;26.20;70.60;;;;;;6205204;23;20474;-81
2023/09/06 21:29:01;;;;;;;6.57;5.93;;;26.20;70.50;;;;;;6217676;23;20397;-81
2023/09/06 21:32:20;;;;;;;5.77;5.27;;;26.10;71.60;;;;;;6203648;23;20431;-83
2023/09/06 21:35:56;;;;;;;6.30;5.70;;;26.00;73.60;;;;;;6222241;23;20390;-84
2023/09/06 21:39:06;;;;;;;;;;;;;;;;;;;;;
2023/09/06 21:42:42;;;;;;;6.20;5.60;;;25.70;76.10;;;;;;6196741;23;20404;-83
2023/09/06 21:46:04;;;;;;;8.83;5.30;;;25.70;77.30;;;;;;6121560;23;20796;-82
2023/09/06 21:52:23;;;;;;;6.10;5.53;;;25.60;78.80;;;;;;6125394;23;20519;-81
2023/09/06 21:57:59;;;;;;;6.23;5.73;;;25.70;79.60;;;;;;6238021;22;20872;-83
2023/09/06 22:00:48;;;;;;;6.73;6.10;;;25.60;79.40;;;;;;6236889;23;20456;-84
2023/09/06 22:03:50;;;;;;;5.93;5.40;;;25.60;79.80;;;;;;6197472;23;20503;-80
2023/09/06 22:06:52;;;;;;;5.70;5.07;;;25.50;80.30;;;;;;6205650;23;20408;-82
2023/09/06 22:09:48;;;;;;;5.60;5.00;;;25.50;80.30;;;;;;6214268;23;20428;-82
2023/09/06 22:12:42;;;;;;;5.53;4.90;;;25.40;80.70;;;;;;6223970;23;20432;-84
2023/09/06 22:15:40;;;;;;;7.67;5.50;;;25.40;80.60;;;;;;6208753;22;20392;-83
2023/09/06 22:18:20;;;;;;;6.27;5.63;;;25.30;82.40;;;;;;6244541;23;20416;-83
2023/09/06 22:21:35;;;;;;;;;;;;;;;;;;;;;
2023/09/06 22:28:28;;;;;;;6.60;6.00;;;25.10;87.40;;;;;;6178420;23;20391;-85
2023/09/06 22:31:28;;;;;;;6.73;5.90;;;25.10;88.70;;;;;;6149577;23;20422;-81
2023/09/06 22:34:34;;;;;;;6.43;5.83;;;25.20;89.10;;;;;;6132595;23;20870;-81
2023/09/06 22:37:13;;;;;;;7.27;6.57;;;24.90;89.80;;;;;;6155809;22;20450;-83
2023/09/06 22:39:41;;;;;;;6.63;5.30;;;25.00;90.10;;;;;;6213813;23;20535;-81
2023/09/06 22:42:08;;;;;;;5.10;4.70;;;25.00;90.10;;;;;;6214491;23;20435;-81
2023/09/06 22:44:35;;;;;;;5.70;5.20;;;24.90;89.00;;;;;;6212026;23;20444;-84
2023/09/06 22:47:02;;;;;;;6.00;4.70;;;24.90;87.60;;;;;;6219187;23;20416;-83
2023/09/06 22:49:30;;;;;;;5.60;4.47;;;24.80;86.70;;;;;;6219014;22;20443;-81
2023/09/06 22:55:30;;;;;;;5.20;4.30;;;24.60;86.00;;;;;;6201047;22;20476;-81
2023/09/06 22:58:15;;;;;;;5.13;4.67;;;24.60;85.70;;;;;;6204384;22;20562;-83
2023/09/06 23:01:17;;;;;;;5.20;4.70;;;24.60;86.20;;;;;;6213096;23;20455;-82
2023/09/06 23:04:35;;;;;;;5.60;5.07;;;24.50;86.20;;;;;;6214239;23;20459;-82
2023/09/06 23:07:30;;;;;;;5.57;5.07;;;24.50;86.40;;;;;;6177538;23;20412;-84
2023/09/06 23:10:21;;;;;;;;;;;;;;;;;;;;;
2023/09/06 23:13:24;;;;;;;4.97;4.57;;;24.50;87.10;;;;;;6213135;23;20413;-83
2023/09/06 23:16:18;;;;;;;5.30;4.80;;;24.40;87.10;;;;;;6099218;23;20391;-82
2023/09/06 23:19:08;;;;;;;4.93;4.47;;;24.40;87.60;;;;;;6101969;23;20391;-83
2023/09/06 23:22:06;;;;;;;4.67;4.27;;;24.40;84.20;;;;;;6095103;23;20446;-84
2023/09/06 23:25:01;;;;;;;4.80;4.40;;;24.20;85.20;;;;;;6114152;23;20435;-82
2023/09/06 23:31:03;;;;;;;6.30;5.03;;;24.20;87.70;;;;;;6117403;23;20567;-82
2023/09/06 23:34:15;;;;;;;5.47;4.97;;;24.10;87.80;;;;;;6095652;23;20491;-82
2023/09/06 23:37:08;;;;;;;4.33;4.03;;;24.20;87.20;;;;;;6097052;23;20534;-83
2023/09/06 23:40:38;;;;;;;4.70;4.27;;;24.20;86.80;;;;;;6072727;23;20419;-83
2023/09/06 23:43:58;;;;;;;6.43;5.40;;;24.10;87.20;;;;;;6069099;23;20412;-82
2023/09/06 23:47:25;;;;;;;7.17;6.47;;;24.10;87.90;;;;;;6078305;23;20486;-84
2023/09/06 23:50:14;;;;;;;5.63;5.10;;;24.00;89.00;;;;;;6121788;23;20432;-82
2023/09/06 23:53:27;;;;;;;5.10;4.43;;;24.00;90.20;;;;;;6150415;23;20412;-81
2023/09/06 23:56:13;;;;;;;5.60;5.07;;;23.90;91.00;;;;;;6233672;23;20497;-82
2023/09/06 23:59:20;;;;;;;5.63;5.13;;;23.90;91.10;;;;;;6230879;23;20459;-82
